Time;durP1;ratioP1;P1;durP2;ratioP2;P2;SDS_P1;SDS_P2;PMS_P1;PMS_P2;Temp;Humidity;BMP_temperature;BMP_pressure;BME280_temperature;BME280_humidity;BME280_pressure;Samples;Min_cycle;Max_cycle;Signal;HPM_P1;HPM_P2
2022/08/16 00:00:29;;;;;;;7.47;2.08;;;;;;;25.53;47.22;99480.23;1738159;80;21008;-70
2022/08/16 00:02:57;;;;;;;3.90;1.75;;;;;;;25.57;47.04;99462.12;1758539;80;21064;-70
2022/08/16 00:05:24;;;;;;;6.28;1.98;;;;;;;25.61;46.95;99474.59;1685436;80;21146;-77
2022/08/16 00:07:52;;;;;;;6.60;1.52;;;;;;;25.62;49.13;99492.58;1695222;79;21080;-72
2022/08/16 01:34:32;;;;;;;2.65;2.45;;;;;;;22.39;70.76;99526.41;1733752;78;21575;-80
2022/08/16 02:46:29;;;;;;;11.68;3.90;;;;;;;21.79;72.54;99481.30;1668675;80;21518;-70
2022/08/16 03:14:14;;;;;;;4.28;3.87;;;;;;;21.62;72.24;99475.47;1732270;78;21457;31
2022/08/16 03:42:55;;;;;;;4.75;3.45;;;;;;;21.89;70.00;99477.72;1710327;78;21356;-70
2022/08/16 04:12:25;;;;;;;3.85;3.10;;;;;;;22.13;69.34;99495.39;1770683;77;21522;-71
2022/08/16 04:37:36;;;;;;;3.00;2.80;;;;;;;22.77;68.09;99469.50;1689314;81;21986;-71
2022/08/16 04:40:56;;;;;;;3.72;2.92;;;;;;;23.18;67.00;99454.85;1705199;79;21216;31
2022/08/16 04:46:54;;;;;;;6.40;3.20;;;;;;;23.94;64.62;99485.27;1727312;81;21692;-81
2022/08/16 04:49:21;;;;;;;6.72;3.12;;;;;;;24.44;62.98;99475.94;1736329;81;20996;-73
2022/08/16 05:14:14;;;;;;;7.42;2.92;;;;;;;26.40;55.31;99496.38;1673172;84;21123;-83
2022/08/16 05:16:44;;;;;;;4.35;2.60;;;;;;;26.14;55.66;99495.67;1673523;84;21056;-82
2022/08/16 05:19:11;;;;;;;5.22;2.98;;;;;;;26.00;56.07;99494.96;1647837;84;21107;-81
2022/08/16 05:21:39;;;;;;;7.92;2.35;;;;;;;25.84;56.41;99538.99;1673727;84;21032;-85
2022/08/16 05:24:08;;;;;;;4.83;2.40;;;;;;;25.64;57.07;99499.90;1672199;84;21068;-81
2022/08/16 05:26:37;;;;;;;4.17;2.22;;;;;;;25.48;57.90;99516.37;1674974;84;21101;-86
2022/08/16 05:29:05;;;;;;;3.20;2.02;;;;;;;25.33;58.53;99510.13;1675088;84;21027;-81
2022/08/16 05:31:33;;;;;;;5.40;2.72;;;;;;;25.17;59.01;99526.57;1678256;82;21023;-85
2022/08/16 05:34:03;;;;;;;7.78;2.45;;;;;;;25.00;59.21;99534.02;1653590;84;21272;-85
2022/08/16 05:36:31;;;;;;;7.85;3.47;;;;;;;24.87;59.57;99523.36;1677342;84;21052;-81
2022/08/16 05:38:59;;;;;;;6.80;3.10;;;;;;;24.80;59.85;99527.84;1674847;84;21068;-88
2022/08/16 05:41:28;;;;;;;7.28;2.10;;;;;;;24.81;59.87;99525.95;1676497;84;21076;-85
2022/08/16 05:43:59;;;;;;;4.33;2.75;;;;;;;24.89;59.81;99519.77;1617167;86;21134;-85
2022/08/16 05:46:27;;;;;;;7.33;2.83;;;;;;;24.98;58.99;99539.77;1595339;86;21748;-88
2022/08/16 05:48:57;;;;;;;5.70;2.12;;;;;;;25.10;58.51;99544.69;1571310;90;21977;-89
2022/08/16 05:51:23;;;;;;;4.95;2.27;;;;;;;25.08;58.61;99539.30;1588253;88;21238;-86
2022/08/16 05:54:02;;;;;;;7.22;2.83;;;;;;;25.04;58.01;99578.06;1570436;81;21136;31
2022/08/16 05:56:50;;;;;;;4.22;2.52;;;;;;;24.99;58.28;99535.91;1709358;83;21477;-93
2022/08/16 05:59:16;;;;;;;3.33;2.22;;;;;;;24.99;58.12;99541.92;1691603;83;21068;-93
2022/08/16 06:01:49;;;;;;;2.42;2.22;;;;;;;25.01;58.17;99536.97;1705399;83;21019;-92
2022/08/16 06:04:23;;;;;;;8.18;3.00;;;;;;;25.11;57.57;99556.40;1616723;87;21088;-93
2022/08/16 06:07:07;;;;;;;;;;;;;;;;;;;;;
2022/08/16 06:09:33;;;;;;;5.15;2.62;;;;;;;25.09;57.45;99549.91;1649520;84;21018;-92
2022/08/16 06:12:39;;;;;;;4.58;2.80;;;;;;;25.03;57.53;99550.57;1635527;83;23931;31
2022/08/16 06:15:14;;;;;;;3.20;2.67;;;;;;;24.93;57.61;99549.39;1603157;84;21070;-68
2022/08/16 06:17:42;;;;;;;2.67;2.27;;;;;;;24.81;58.49;99525.95;1709250;81;21164;-78
2022/08/16 06:20:19;;;;;;;9.25;2.55;;;;;;;24.70;58.44;99548.48;1687768;83;21112;-68
2022/08/16 06:22:46;;;;;;;7.40;2.52;;;;;;;24.62;58.84;99532.82;1700160;80;21526;-68
2022/08/16 06:25:13;;;;;;;4.95;2.33;;;;;;;24.49;59.22;99546.11;1705335;82;21025;-68
2022/08/16 06:27:41;;;;;;;3.87;2.58;;;;;;;24.38;59.59;99539.80;1681692;84;21037;-71
2022/08/16 06:30:11;;;;;;;4.05;3.47;;;;;;;24.27;59.91;99560.38;1690376;81;21080;-71
2022/08/16 06:32:38;;;;;;;3.92;2.95;;;;;;;24.19;60.33;99556.98;1709455;82;21436;-73
2022/08/16 06:35:06;;;;;;;7.62;2.80;;;;;;;24.15;60.74;99546.97;1705379;82;21076;-71
2022/08/16 06:44:35;;;;;;;6.20;4.17;;;;;;;24.09;61.10;99551.70;1671323;81;20970;-74
2022/08/16 06:47:04;;;;;;;6.20;3.30;;;;;;;24.08;61.16;99583.56;1677198;84;21005;-73
2022/08/16 06:56:06;;;;;;;11.15;3.90;;;;;;;24.14;60.74;99628.41;1668896;84;20989;-71
2022/08/16 06:58:36;;;;;;;8.38;3.58;;;;;;;24.12;60.22;99630.63;1629748;86;21417;-73
2022/08/16 07:01:04;;;;;;;5.58;3.70;;;;;;;24.10;60.07;99667.66;1664569;82;20979;-74
2022/08/16 07:03:31;;;;;;;8.58;4.58;;;;;;;24.07;59.89;99641.02;1621737;86;20970;-74
2022/08/16 07:05:57;;;;;;;6.90;4.15;;;;;;;24.07;59.19;99675.05;1645930;85;20994;-74
2022/08/16 07:08:29;;;;;;;12.28;4.12;;;;;;;24.09;59.06;99660.59;1681963;81;21145;-72
2022/08/16 07:10:57;;;;;;;7.50;4.35;;;;;;;24.10;58.79;99664.94;1700861;82;21489;-76
2022/08/16 07:13:25;;;;;;;5.58;4.33;;;;;;;24.12;58.78;99653.20;1668157;84;21131;-72
2022/08/16 07:15:51;;;;;;;6.85;5.15;;;;;;;24.13;58.69;99675.25;1695465;83;21044;-71
2022/08/16 07:18:20;;;;;;;11.50;4.95;;;;;;;24.12;58.95;99669.53;1712669;82;21029;-72
2022/08/16 07:20:48;;;;;;;6.10;4.62;;;;;;;24.14;59.77;99681.50;1697207;82;21186;-72
2022/08/16 07:23:15;;;;;;;7.70;5.40;;;;;;;24.12;60.33;99663.30;1656479;85;21128;-70
2022/08/16 07:25:44;;;;;;;8.25;5.05;;;;;;;24.05;61.25;99685.42;1664235;83;21124;-70
2022/08/16 07:28:14;;;;;;;5.25;4.70;;;;;;;23.94;62.24;99651.28;1600462;88;21050;-73
2022/08/16 07:30:41;;;;;;;9.05;4.95;;;;;;;23.80;63.43;99681.95;1609273;87;21052;-75
2022/08/16 07:33:09;;;;;;;11.97;4.67;;;;;;;23.71;64.19;99664.63;1688960;82;21236;-69
2022/08/16 07:35:38;;;;;;;7.67;4.50;;;;;;;23.60;65.03;99664.49;1717661;82;21034;-69
2022/08/16 07:38:06;;;;;;;9.30;4.40;;;;;;;23.57;65.45;99655.58;1737114;81;21051;-69
2022/08/16 07:40:35;;;;;;;9.10;4.97;;;;;;;23.56;65.99;99667.55;1730655;81;21016;-69
2022/08/16 07:43:03;;;;;;;5.78;3.77;;;;;;;23.51;66.45;99655.63;1733019;82;21083;-70
2022/08/16 07:45:32;;;;;;;4.37;3.95;;;;;;;23.47;67.16;99663.28;1710685;82;20999;-69
2022/08/16 07:47:58;;;;;;;7.25;4.58;;;;;;;23.32;69.34;99663.75;1700972;82;21138;-72
2022/08/16 07:50:26;;;;;;;5.22;4.33;;;;;;;23.18;70.60;99670.96;1720835;82;21046;-70
2022/08/16 07:52:52;;;;;;;3.98;3.52;;;;;;;22.96;71.74;99685.01;1685946;84;21053;-70
2022/08/16 07:55:18;;;;;;;7.28;5.08;;;;;;;22.85;72.27;99665.30;1653737;85;21141;-70
2022/08/16 07:57:45;;;;;;;11.12;5.08;;;;;;;22.73;73.90;99673.83;1702487;82;21075;-71
2022/08/16 08:00:13;;;;;;;6.87;4.10;;;;;;;22.64;75.19;99677.42;1709554;82;21509;-69
2022/08/16 08:02:46;;;;;;;8.08;5.03;;;;;;;22.58;74.73;99680.73;1710652;81;21117;-71
2022/08/16 08:05:15;;;;;;;7.70;4.05;;;;;;;22.55;75.30;99676.69;1713626;81;20994;-74
2022/08/16 08:07:43;;;;;;;4.47;3.02;;;;;;;22.50;76.14;99678.63;1727431;81;21041;-70
2022/08/16 08:10:10;;;;;;;9.00;3.35;;;;;;;22.45;75.31;99689.52;1703283;81;21050;-69
2022/08/16 08:12:38;;;;;;;6.50;3.62;;;;;;;22.34;76.59;99691.52;1672676;83;21023;-70
2022/08/16 08:15:10;;;;;;;3.45;3.17;;;;;;;22.30;75.71;99698.59;1661201;86;21035;-70
2022/08/16 08:17:38;;;;;;;5.17;2.90;;;;;;;22.31;75.49;99694.80;1663621;84;21094;-70
2022/08/16 08:20:08;;;;;;;2.62;2.50;;;;;;;22.29;75.51;99681.49;1682002;84;21531;-68
2022/08/16 08:22:38;;;;;;;3.45;3.15;;;;;;;22.26;75.12;99698.33;1752264;80;21484;-70
2022/08/16 08:25:08;;;;;;;3.95;2.77;;;;;;;22.26;76.22;99682.60;1731196;81;21074;-71
2022/08/16 08:27:36;;;;;;;3.62;3.30;;;;;;;22.19;77.24;99711.41;1698511;80;21599;-70
2022/08/16 08:30:05;;;;;;;2.92;2.67;;;;;;;22.08;78.21;99722.05;1685742;84;21012;-70
2022/08/16 08:32:32;;;;;;;3.35;2.83;;;;;;;21.95;78.90;99704.47;1683618;84;21092;-70
2022/08/16 08:35:01;;;;;;;5.37;2.33;;;;;;;21.74;79.97;99707.83;1676011;80;21142;-71
2022/08/16 08:37:27;;;;;;;3.35;3.08;;;;;;;21.59;80.95;99703.28;1665505;83;21062;-70
2022/08/16 08:39:55;;;;;;;4.22;3.83;;;;;;;21.42;83.30;99702.22;1668627;83;21066;-71
2022/08/16 08:42:22;;;;;;;7.55;3.83;;;;;;;21.29;83.98;99694.67;1669743;83;21030;-72
2022/08/16 08:44:48;;;;;;;5.97;4.55;;;;;;;21.16;84.84;99688.72;1712691;80;21597;-71
2022/08/16 08:47:15;;;;;;;4.20;3.90;;;;;;;21.06;86.41;99680.63;1701457;82;21145;-71
2022/08/16 08:49:42;;;;;;;4.05;3.62;;;;;;;20.97;88.04;99680.36;1699149;82;20962;-70
2022/08/16 08:52:10;;;;;;;5.50;3.92;;;;;;;20.91;88.64;99688.78;1705309;82;20985;-70
2022/08/16 08:54:37;;;;;;;4.00;3.70;;;;;;;20.85;88.86;99685.27;1723200;81;21542;-70
2022/08/16 08:57:05;;;;;;;4.53;4.15;;;;;;;20.79;90.03;99685.81;1629465;85;21063;-73
2022/08/16 08:59:36;;;;;;;6.17;3.45;;;;;;;20.74;90.49;99681.74;1683968;84;21031;-71
2022/08/16 09:02:07;;;;;;;7.75;4.15;;;;;;;20.72;91.31;99687.98;1716779;82;21166;-71
2022/08/16 09:04:34;;;;;;;4.20;3.87;;;;;;;20.68;91.81;99689.61;1739760;81;21121;-72
2022/08/16 09:07:03;;;;;;;6.40;3.85;;;;;;;20.65;92.17;99694.75;1684754;81;21131;-71
2022/08/16 09:09:31;;;;;;;4.92;4.42;;;;;;;20.64;92.62;99693.91;1670303;85;21031;-69
2022/08/16 09:11:58;;;;;;;6.37;4.70;;;;;;;20.64;93.07;99701.23;1668471;85;21578;-70
2022/08/16 09:14:24;;;;;;;4.95;4.08;;;;;;;20.66;93.66;99703.93;1715800;80;21033;-70
2022/08/16 09:16:54;;;;;;;6.12;4.42;;;;;;;20.68;93.55;99718.04;1737668;81;21543;-72
2022/08/16 09:19:21;;;;;;;6.37;5.22;;;;;;;20.69;93.92;99709.36;1735621;81;21237;-70
2022/08/16 09:21:49;;;;;;;7.00;4.95;;;;;;;20.72;94.00;99709.64;1756418;80;21045;-68
2022/08/16 09:24:17;;;;;;;6.42;5.58;;;;;;;20.77;93.91;99721.80;1736101;80;21120;-74
2022/08/16 09:26:45;;;;;;;6.87;5.28;;;;;;;20.82;93.42;99718.85;1724555;82;21010;-68
2022/08/16 09:29:13;;;;;;;6.47;5.30;;;;;;;20.86;93.87;99724.80;1692247;81;21116;-70
2022/08/16 09:31:40;;;;;;;8.10;4.97;;;;;;;20.92;93.89;99733.73;1662677;83;21058;-69
2022/08/16 09:34:06;;;;;;;5.83;5.25;;;;;;;20.95;92.71;99733.20;1688486;83;21009;-71
2022/08/16 09:36:32;;;;;;;6.22;5.62;;;;;;;20.96;92.97;99749.70;1696707;82;21065;-72
2022/08/16 09:39:00;;;;;;;;;;;;;;;20.98;93.61;99738.05;1697335;83;21098;-69
2022/08/16 09:41:27;;;;;;;9.53;5.75;;;;;;;21.02;93.51;99737.80;1697231;83;20179;-70
2022/08/16 09:43:53;;;;;;;;;;;;;;;21.00;93.84;99734.01;1699269;82;21108;-69
2022/08/16 09:46:20;;;;;;;6.92;5.55;;;;;;;21.11;93.86;99730.72;1727929;81;20097;-71
2022/08/16 09:48:47;;;;;;;7.45;5.67;;;;;;;21.27;93.75;99730.72;1736086;82;21028;-70
2022/08/16 09:51:13;;;;;;;6.95;5.87;;;;;;;21.50;92.63;99745.05;1730008;81;21001;-70
2022/08/16 09:53:40;;;;;;;7.83;5.97;;;;;;;21.68;90.31;99745.53;1760056;81;21192;-68
2022/08/16 09:56:21;;;;;;;8.85;5.75;;;;;;;21.78;89.18;99730.05;1750614;80;20986;-71
2022/08/16 09:58:47;;;;;;;6.47;5.85;;;;;;;21.85;88.03;99746.03;1716991;80;21141;-70
2022/08/16 10:01:15;;;;;;;8.93;5.67;;;;;;;21.92;87.88;99732.95;1718445;82;21509;-71
2022/08/16 10:03:41;;;;;;;8.60;5.83;;;;;;;21.96;87.71;99723.20;1721242;82;21645;-69
2022/08/16 10:06:07;;;;;;;5.53;5.03;;;;;;;22.04;87.36;99735.36;1760974;80;21554;-68
2022/08/16 10:08:33;;;;;;;6.03;5.42;;;;;;;22.11;86.54;99736.40;1761470;80;21085;-73
2022/08/16 10:13:45;;;;;;;6.45;5.90;;;;;;;22.16;86.23;99730.40;1719201;79;21104;-76
2022/08/16 10:16:12;;;;;;;5.83;5.15;;;;;;;22.20;85.62;99714.37;1694209;83;21030;-70
2022/08/16 10:18:41;;;;;;;6.12;5.45;;;;;;;22.22;84.84;99701.88;1701526;83;21032;-69
2022/08/16 10:21:08;;;;;;;6.72;5.60;;;;;;;22.23;84.97;99698.89;1700281;83;21077;-74
2022/08/16 10:23:35;;;;;;;6.45;5.12;;;;;;;22.23;85.23;99722.52;1750368;78;21029;-71
2022/08/16 10:26:02;;;;;;;6.97;5.40;;;;;;;22.22;84.84;99714.89;1765949;80;21010;-69
2022/08/16 10:28:30;;;;;;;6.55;5.50;;;;;;;22.15;85.48;99734.74;1769153;80;21630;-70
2022/08/16 10:30:59;;;;;;;5.55;4.75;;;;;;;22.11;85.36;99744.54;1719764;81;21089;-72
2022/08/16 10:33:27;;;;;;;5.60;5.03;;;;;;;22.03;85.41;99733.73;1708079;82;21073;-70
2022/08/16 10:35:53;;;;;;;5.95;5.45;;;;;;;21.96;85.62;99727.27;1725474;82;21053;-69
2022/08/16 10:38:21;;;;;;;7.42;5.70;;;;;;;21.90;85.98;99743.28;1715732;80;21066;-69
2022/08/16 10:40:47;;;;;;;6.08;5.62;;;;;;;21.85;86.72;99737.06;1717711;82;21558;-78
2022/08/16 10:43:14;;;;;;;6.30;5.70;;;;;;;21.83;87.19;99743.31;1714712;82;21015;-71
2022/08/16 10:45:40;;;;;;;5.65;5.12;;;;;;;21.84;87.68;99738.17;1712579;80;21585;-69
2022/08/16 10:48:09;;;;;;;7.47;4.97;;;;;;;21.88;87.23;99745.45;1713367;82;21505;-70
2022/08/16 10:50:36;;;;;;;4.75;4.35;;;;;;;21.93;86.12;99741.37;1702655;82;21513;-72
2022/08/16 10:53:05;;;;;;;4.83;4.20;;;;;;;21.99;85.73;99753.58;1703687;80;21608;-71
2022/08/16 10:55:35;;;;;;;4.47;3.85;;;;;;;22.02;84.97;99766.04;1728177;82;20979;-71
2022/08/16 10:58:05;;;;;;;4.85;4.42;;;;;;;22.06;84.44;99764.94;1720173;82;21301;-76
2022/08/16 11:00:34;;;;;;;4.50;4.10;;;;;;;22.13;84.32;99770.85;1763571;79;20946;-70
2022/08/16 11:03:02;;;;;;;4.95;4.37;;;;;;;22.24;84.56;99760.77;1789899;79;21550;-70
2022/08/16 11:05:33;;;;;;;5.20;4.30;;;;;;;22.29;83.75;99787.92;1779753;79;20966;-70
2022/08/16 11:08:01;;;;;;;5.90;5.25;;;;;;;22.33;82.82;99769.42;1731734;80;21741;-73
2022/08/16 11:10:35;;;;;;;5.15;4.65;;;;;;;22.40;82.23;99769.68;1741572;82;21013;-69
2022/08/16 11:13:02;;;;;;;5.60;5.17;;;;;;;22.48;82.39;99758.22;1741383;81;21108;-70
2022/08/16 11:15:29;;;;;;;5.40;4.85;;;;;;;22.49;82.19;99763.38;1721578;79;21519;-71
2022/08/16 11:17:55;;;;;;;7.45;5.25;;;;;;;22.53;82.28;99749.48;1714573;82;21034;-71
2022/08/16 11:20:22;;;;;;;5.42;5.03;;;;;;;22.55;82.64;99759.52;1682639;82;21103;-73
2022/08/16 11:22:50;;;;;;;5.45;4.90;;;;;;;22.60;82.15;99759.22;1712891;79;21029;-70
2022/08/16 11:25:21;;;;;;;5.00;4.55;;;;;;;22.67;81.85;99763.23;1708409;82;21007;-70
2022/08/16 11:27:47;;;;;;;11.48;5.40;;;;;;;22.72;81.12;99760.48;1705965;83;21105;-72
2022/08/16 11:30:17;;;;;;;5.35;4.80;;;;;;;22.73;80.58;99756.69;1704412;79;21054;-69
2022/08/16 11:32:43;;;;;;;5.45;5.00;;;;;;;22.77;79.72;99765.61;1699042;83;21065;-71
2022/08/16 11:35:15;;;;;;;9.40;5.25;;;;;;;22.80;79.47;99778.64;1692044;83;21011;-71
2022/08/16 11:37:47;;;;;;;6.75;5.30;;;;;;;22.85;78.81;99774.50;1709003;79;21161;-73
2022/08/16 11:40:15;;;;;;;10.55;5.75;;;;;;;22.89;78.29;99770.16;1721056;82;20983;-71
2022/08/16 11:42:42;;;;;;;6.92;6.25;;;;;;;22.93;78.05;99762.49;1672463;84;21100;-70
2022/08/16 11:45:10;;;;;;;7.28;6.15;;;;;;;22.96;77.24;99773.33;1757356;77;20941;-70
2022/08/16 11:47:38;;;;;;;6.78;6.17;;;;;;;22.98;76.97;99773.05;1783976;80;21553;-71
2022/08/16 11:50:07;;;;;;;9.90;6.45;;;;;;;22.98;76.97;99772.52;1792082;80;21056;-72
2022/08/16 11:52:36;;;;;;;7.58;6.65;;;;;;;22.99;76.66;99790.99;1777234;80;21084;-70
2022/08/16 11:55:05;;;;;;;7.87;5.55;;;;;;;22.99;76.68;99781.48;1781545;80;22293;-70
2022/08/16 11:57:36;;;;;;;5.83;5.33;;;;;;;22.97;76.55;99766.81;1769256;80;20982;-70
2022/08/16 12:00:09;;;;;;;7.15;5.70;;;;;;;22.96;76.72;99775.24;1764941;80;21042;-69
2022/08/16 12:02:38;;;;;;;6.60;5.97;;;;;;;22.95;76.88;99774.44;1768037;80;20957;-71
2022/08/16 12:05:08;;;;;;;7.50;5.70;;;;;;;22.95;77.09;99777.16;1764723;80;21005;-72
2022/08/16 12:07:40;;;;;;;6.35;5.70;;;;;;;22.94;77.43;99779.59;1763278;80;21073;-73
2022/08/16 12:10:13;;;;;;;7.30;6.42;;;;;;;22.95;77.65;99790.75;1694369;81;21160;-71
2022/08/16 12:12:41;;;;;;;7.12;6.12;;;;;;;22.98;77.75;99794.27;1654339;85;21064;-69
2022/08/16 12:15:12;;;;;;;9.63;6.53;;;;;;;23.04;77.59;99785.00;1727565;79;21050;-70
2022/08/16 12:17:40;;;;;;;12.88;7.00;;;;;;;23.09;77.57;99784.12;1712276;83;20997;-69
2022/08/16 12:20:11;;;;;;;8.48;6.33;;;;;;;23.14;77.63;99781.38;1752432;81;21095;-71
2022/08/16 12:22:38;;;;;;;7.55;6.83;;;;;;;23.15;78.07;99784.89;1760512;78;21015;-70
2022/08/16 12:25:08;;;;;;;7.08;6.35;;;;;;;23.13;77.99;99783.29;1726994;81;21545;-69
2022/08/16 12:27:35;;;;;;;8.08;6.70;;;;;;;23.15;78.50;99782.18;1734735;81;21022;-70
2022/08/16 12:30:04;;;;;;;8.70;6.75;;;;;;;23.18;78.39;99789.22;1710283;81;21154;-70
2022/08/16 12:32:30;;;;;;;8.10;6.30;;;;;;;23.23;78.54;99787.02;1704222;83;21121;-70
2022/08/16 12:34:57;;;;;;;7.50;6.80;;;;;;;23.25;78.32;99778.83;1709818;82;21535;-71
2022/08/16 12:37:23;;;;;;;14.55;7.53;;;;;;;23.24;78.94;99775.83;1714010;82;21129;-71
2022/08/16 12:39:54;;;;;;;7.80;6.75;;;;;;;23.23;79.14;99766.63;1742263;81;21024;-70
2022/08/16 12:42:22;;;;;;;11.78;6.75;;;;;;;23.23;79.25;99774.22;1763483;80;21491;-71
2022/08/16 12:44:49;;;;;;;7.72;5.97;;;;;;;23.25;78.58;99788.90;1668493;82;21053;-70
2022/08/16 12:50:06;;;;;;;7.37;6.70;;;;;;;23.26;78.56;99780.98;1645152;85;22276;-72
2022/08/16 12:52:33;;;;;;;7.08;6.42;;;;;;;23.25;78.50;99778.83;1687513;85;21102;-71
2022/08/16 12:55:01;;;;;;;6.97;6.28;;;;;;;23.27;78.65;99773.11;1679507;85;21091;-72
2022/08/16 12:57:27;;;;;;;6.28;5.72;;;;;;;23.27;78.73;99777.98;1649804;84;21125;-71
2022/08/16 12:59:53;;;;;;;8.73;6.00;;;;;;;23.29;78.07;99792.66;1621840;87;21576;-71
2022/08/16 13:02:20;;;;;;;7.05;5.60;;;;;;;23.27;77.77;99773.91;1653247;85;21013;-74
2022/08/16 13:04:46;;;;;;;6.28;5.15;;;;;;;23.28;77.84;99771.47;1678222;82;21177;-70
2022/08/16 13:07:12;;;;;;;8.60;4.80;;;;;;;23.31;76.95;99785.83;1670134;84;21040;-70
2022/08/16 13:09:51;;;;;;;6.08;5.47;;;;;;;23.26;76.55;99768.75;1675688;84;21037;-70
2022/08/16 13:12:22;;;;;;;5.20;4.53;;;;;;;23.17;75.70;99774.02;1668957;82;21153;-70
2022/08/16 13:14:48;;;;;;;5.12;4.72;;;;;;;23.14;75.56;99774.58;1667196;85;21030;-70
2022/08/16 13:17:22;;;;;;;4.80;4.40;;;;;;;23.13;75.90;99775.14;1669949;85;21046;-71
2022/08/16 13:19:52;;;;;;;6.92;4.20;;;;;;;23.19;75.20;99774.55;1701657;83;21110;-71
2022/08/16 13:22:21;;;;;;;6.75;3.92;;;;;;;23.23;74.71;99767.98;1693889;83;21183;-71
2022/08/16 13:24:49;;;;;;;3.72;3.52;;;;;;;23.26;74.83;99774.19;1677304;84;21613;-73
2022/08/16 13:27:16;;;;;;;5.33;4.17;;;;;;;23.28;74.64;99766.03;1680376;84;21918;-72
2022/08/16 13:30:47;;;;;;;7.10;5.60;;;;;;;23.35;74.25;99777.11;1858009;75;22743;-71
2022/08/16 13:33:23;;;;;;;10.15;5.78;;;;;;;23.30;74.82;99775.23;1823868;78;21064;-70
2022/08/16 13:35:52;;;;;;;5.92;5.42;;;;;;;23.27;75.28;99775.27;1718887;81;21129;-71
2022/08/16 13:38:21;;;;;;;6.35;5.03;;;;;;;23.25;76.00;99776.66;1667829;83;21079;-71
2022/08/16 13:40:48;;;;;;;10.45;5.83;;;;;;;23.21;76.60;99770.98;1666914;83;22211;-69
2022/08/16 13:43:15;;;;;;;7.95;6.12;;;;;;;23.19;77.20;99764.19;1694888;82;21216;-70
2022/08/16 13:45:42;;;;;;;9.45;5.50;;;;;;;23.16;77.62;99773.73;1672173;83;20991;-72
2022/08/16 13:48:09;;;;;;;6.62;5.67;;;;;;;23.14;78.24;99770.50;1705035;82;21169;-70
2022/08/16 13:50:35;;;;;;;6.12;5.62;;;;;;;23.12;78.59;99765.91;1728056;81;21068;-72
2022/08/16 13:53:02;;;;;;;6.50;6.00;;;;;;;23.10;78.86;99758.02;1719397;81;21064;-70
2022/08/16 13:55:29;;;;;;;7.45;6.17;;;;;;;23.12;79.22;99766.70;1721265;81;21041;-71
2022/08/16 13:57:55;;;;;;;7.22;5.78;;;;;;;23.15;78.81;99764.51;1732581;80;21779;-69
2022/08/16 14:00:21;;;;;;;5.97;5.37;;;;;;;23.15;78.90;99769.95;1701265;82;21006;-75
2022/08/16 14:02:48;;;;;;;6.85;5.90;;;;;;;23.14;78.71;99754.19;1702440;82;21003;-69
2022/08/16 14:05:15;;;;;;;5.47;4.50;;;;;;;23.13;78.83;99771.06;1718674;82;21058;-70
2022/08/16 14:07:41;;;;;;;6.35;5.12;;;;;;;23.13;78.19;99769.70;1726429;79;21656;-70
2022/08/16 14:10:11;;;;;;;5.10;4.80;;;;;;;23.08;77.76;99783.33;1735426;80;21022;-70
2022/08/16 14:12:39;;;;;;;6.87;5.55;;;;;;;23.04;77.79;99759.73;1717332;80;21393;-69
2022/08/16 14:15:10;;;;;;;8.28;5.25;;;;;;;23.00;77.74;99764.89;1727881;81;21584;-74
2022/08/16 14:17:37;;;;;;;4.92;4.33;;;;;;;23.00;77.80;99741.80;1697296;78;21140;-70
2022/08/16 14:20:06;;;;;;;10.70;5.20;;;;;;;22.98;77.38;99749.42;1677645;83;21035;-73
2022/08/16 14:22:37;;;;;;;7.92;4.80;;;;;;;22.97;76.49;99751.06;1735012;79;20957;-70
2022/08/16 14:25:09;;;;;;;6.90;5.50;;;;;;;22.96;76.42;99754.30;1761930;80;21459;-70
2022/08/16 14:27:36;;;;;;;5.85;5.35;;;;;;;22.95;76.51;99754.06;1766705;79;21144;-70
2022/08/16 14:30:05;;;;;;;4.60;4.20;;;;;;;22.94;76.68;99745.62;1779700;79;20993;-72
2022/08/16 14:32:32;;;;;;;5.30;4.37;;;;;;;22.91;77.09;99744.86;1731968;79;21095;-70
2022/08/16 14:35:06;;;;;;;5.30;4.75;;;;;;;22.88;76.95;99751.66;1688609;84;21046;-70
2022/08/16 14:37:32;;;;;;;6.00;5.50;;;;;;;22.82;77.29;99759.59;1687109;83;21067;-70
2022/08/16 14:39:58;;;;;;;5.85;5.17;;;;;;;22.77;77.26;99756.10;1721375;81;21068;-70
2022/08/16 14:42:25;;;;;;;5.37;4.67;;;;;;;22.73;77.57;99749.06;1731904;81;20977;-69
2022/08/16 14:44:52;;;;;;;7.67;4.85;;;;;;;22.70;77.50;99752.37;1755795;81;20994;-72
2022/08/16 14:47:19;;;;;;;5.83;5.22;;;;;;;22.69;77.31;99748.02;1764883;79;21062;-70
2022/08/16 14:49:45;;;;;;;7.70;4.58;;;;;;;22.69;77.39;99744.74;1754307;80;21430;-69
2022/08/16 14:52:16;;;;;;;5.33;4.30;;;;;;;22.67;77.33;99755.08;1763153;79;21085;-71
2022/08/16 14:54:48;;;;;;;11.53;5.33;;;;;;;22.66;76.88;99753.48;1727940;81;21006;-70
2022/08/16 14:57:15;;;;;;;5.62;4.47;;;;;;;22.63;76.99;99755.39;1750957;79;21099;-69
2022/08/16 14:59:43;;;;;;;8.88;5.17;;;;;;;22.62;76.35;99771.44;1745379;81;21059;-69
2022/08/16 15:02:15;;;;;;;4.65;3.75;;;;;;;22.58;76.35;99758.13;1737224;81;21049;-71
2022/08/16 15:04:41;;;;;;;5.03;4.78;;;;;;;22.49;77.16;99760.66;1751705;81;21565;-70
2022/08/16 15:07:12;;;;;;;7.67;4.70;;;;;;;22.31;78.64;99747.73;1741403;79;21634;-69
2022/08/16 15:09:42;;;;;;;5.20;4.80;;;;;;;22.23;78.47;99768.11;1739311;81;20968;-71
2022/08/16 15:12:16;;;;;;;5.42;4.90;;;;;;;22.16;78.96;99771.11;1732080;80;21062;-72
2022/08/16 15:14:44;;;;;;;6.08;4.87;;;;;;;22.10;79.54;99759.22;1753492;79;21712;-68
2022/08/16 15:17:11;;;;;;;11.40;5.20;;;;;;;22.05;79.83;99763.30;1756176;81;21031;-70
2022/08/16 15:19:38;;;;;;;5.87;5.47;;;;;;;21.99;80.56;99776.64;1751279;81;21054;-70
2022/08/16 15:22:11;;;;;;;6.42;5.42;;;;;;;21.90;81.21;99766.34;1758899;78;21117;-71
2022/08/16 15:24:38;;;;;;;5.55;5.03;;;;;;;21.71;83.02;99768.05;1726176;81;21511;-70
2022/08/16 15:27:05;;;;;;;6.05;5.60;;;;;;;21.57;83.68;99780.03;1760921;79;21155;-69
2022/08/16 15:29:31;;;;;;;6.03;4.90;;;;;;;21.47;84.66;99775.97;1741962;80;21119;-70
2022/08/16 15:31:57;;;;;;;13.30;5.47;;;;;;;21.37;85.68;99782.20;1743000;81;20986;-71
2022/08/16 15:34:24;;;;;;;7.00;6.28;;;;;;;21.29;85.77;99781.41;1717002;81;21390;-68
2022/08/16 15:36:51;;;;;;;8.05;6.33;;;;;;;21.17;86.35;99781.14;1715811;81;21548;-72
2022/08/16 15:39:17;;;;;;;6.67;6.03;;;;;;;21.05;87.58;99782.50;1729930;81;21549;-73
2022/08/16 15:41:50;;;;;;;7.17;5.78;;;;;;;20.93;88.16;99777.36;1724193;81;21104;-70
2022/08/16 15:44:20;;;;;;;6.92;6.45;;;;;;;20.86;89.09;99778.16;1751651;78;21103;-69
2022/08/16 15:46:47;;;;;;;10.13;7.25;;;;;;;20.82;89.73;99771.12;1803219;78;20990;-70
2022/08/16 15:49:14;;;;;;;7.62;6.83;;;;;;;20.79;90.80;99768.94;1807247;78;22219;-73
2022/08/16 15:51:43;;;;;;;8.73;6.47;;;;;;;20.75;91.24;99767.30;1775154;78;21088;-70
2022/08/16 15:54:10;;;;;;;6.65;6.05;;;;;;;20.73;91.49;99768.67;1782597;79;20996;-69
2022/08/16 15:56:36;;;;;;;10.43;6.45;;;;;;;20.71;91.77;99770.83;1770934;79;20961;-71
2022/08/16 15:59:03;;;;;;;7.22;6.25;;;;;;;20.71;92.24;99769.48;1763659;79;21234;-71
2022/08/16 16:01:30;;;;;;;6.85;5.85;;;;;;;20.70;92.71;99786.28;1739351;81;21001;-70
2022/08/16 16:03:56;;;;;;;6.55;6.08;;;;;;;20.68;93.17;99771.36;1759360;81;21505;-72
2022/08/16 16:06:23;;;;;;;7.20;6.50;;;;;;;20.66;93.58;99777.59;1728623;81;21136;-71
2022/08/16 16:08:51;;;;;;;6.47;5.85;;;;;;;20.62;93.48;99781.38;1724446;81;21099;-71
2022/08/16 16:11:17;;;;;;;8.15;6.95;;;;;;;20.59;93.69;99782.70;1753077;80;20974;-70
2022/08/16 16:13:45;;;;;;;7.80;6.67;;;;;;;20.57;93.94;99781.36;1779098;78;21107;-72
2022/08/16 16:16:11;;;;;;;;;;;;;;;20.56;94.52;99790.55;1775597;80;21551;-71
2022/08/16 16:18:39;;;;;;;9.00;6.65;;;;;;;20.56;94.88;99789.19;1767081;80;20148;-70
2022/08/16 16:21:14;;;;;;;8.30;6.67;;;;;;;20.51;95.29;99789.17;1756226;80;21053;-70
2022/08/16 16:23:44;;;;;;;7.50;6.80;;;;;;;20.50;95.29;99788.91;1758448;80;21035;-69
2022/08/16 16:26:14;;;;;;;6.80;5.87;;;;;;;20.52;95.27;99797.58;1768726;80;20999;-70
2022/08/16 16:28:42;;;;;;;8.68;7.37;;;;;;;20.51;95.33;99787.30;1746666;80;21057;-69
2022/08/16 16:31:13;;;;;;;9.08;6.90;;;;;;;20.50;95.61;99797.84;1728401;80;21028;-69
2022/08/16 16:33:43;;;;;;;7.33;6.62;;;;;;;20.49;95.69;99796.20;1704307;81;21130;-72
2022/08/16 16:36:14;;;;;;;9.23;7.55;;;;;;;20.49;95.73;99796.75;1710504;81;21100;-70
2022/08/16 16:38:44;;;;;;;7.62;6.97;;;;;;;20.51;95.57;99791.88;1745316;81;21028;-70
2022/08/16 16:41:22;;;;;;;8.80;7.05;;;;;;;20.53;95.47;99797.84;1739596;81;21505;-71